Time;durP1;ratioP1;P1;durP2;ratioP2;P2;SDS_P1;SDS_P2;PMS_P1;PMS_P2;Temp;Humidity;BMP_temperature;BMP_pressure;BME280_temperature;BME280_humidity;BME280_pressure;Samples;Min_cycle;Max_cycle;Signal;HPM_P1;HPM_P2
2023/05/27 00:01:19;;;;;;;;;;;;;;;9.37;75.43;102952.81;5018459;28;19927;-50
2023/05/27 00:03:45;;;;;;;;;;;;;;;9.34;75.77;102950.03;5020045;28;19933;-50
2023/05/27 00:06:11;;;;;;;;;;;;;;;9.31;75.70;102949.84;5016847;28;19931;-52
2023/05/27 00:08:36;;;;;;;;;;;;;;;9.28;74.49;102945.41;5018113;28;20008;-49
2023/05/27 00:11:01;;;;;;;;;;;;;;;9.24;76.48;102953.69;5017297;28;19943;-49
2023/05/27 00:13:26;;;;;;;;;;;;;;;9.19;77.95;102952.47;5019435;28;19964;-51
2023/05/27 00:15:52;;;;;;;;;;;;;;;9.16;75.85;102943.69;5019205;28;19925;-52
2023/05/27 00:18:17;;;;;;;;;;;;;;;9.12;77.75;102940.91;5019329;28;19940;-50
2023/05/27 00:20:42;;;;;;;;;;;;;;;9.07;78.11;102949.97;5016196;28;20343;-52
2023/05/27 00:23:07;;;;;;;;;;;;;;;9.02;75.66;102951.34;5021788;28;19929;-52
2023/05/27 00:25:33;;;;;;;;;;;;;;;8.99;76.89;102935.75;5019172;28;19921;-53
2023/05/27 00:27:58;;;;;;;;;;;;;;;8.96;77.26;102945.81;5016552;28;20364;-52
2023/05/27 00:30:23;;;;;;;;;;;;;;;8.91;78.18;102944.59;5018296;28;19956;-51
2023/05/27 00:32:49;;;;;;;;;;;;;;;8.89;78.58;102933.34;5016880;28;20378;-52
2023/05/27 00:35:14;;;;;;;;;;;;;;;8.83;77.42;102935.50;5017885;28;20352;-52
2023/05/27 00:37:40;;;;;;;;;;;;;;;8.79;77.45;102931.81;5019546;28;19921;-52
2023/05/27 00:40:08;;;;;;;;;;;;;;;8.74;78.98;102930.66;5017629;28;20291;-52
2023/05/27 00:42:33;;;;;;;;;;;;;;;8.69;79.09;102932.00;5015077;28;19921;-52
2023/05/27 00:44:59;;;;;;;;;;;;;;;8.68;78.93;102937.03;5021505;28;19983;-53
2023/05/27 00:47:27;;;;;;;;;;;;;;;8.65;78.93;102932.56;5019226;28;19922;-49
2023/05/27 00:49:53;;;;;;;;;;;;;;;8.59;80.61;102930.47;5016491;28;19955;-52
2023/05/27 00:52:18;;;;;;;;;;;;;;;8.58;80.56;102926.13;5019740;28;19964;-49
2023/05/27 00:54:43;;;;;;;;;;;;;;;8.55;78.02;102920.81;5016719;28;22340;-53
2023/05/27 00:57:08;;;;;;;;;;;;;;;8.50;80.68;102919.59;5018806;28;19929;-49
2023/05/27 00:59:34;;;;;;;;;;;;;;;8.48;78.85;102917.69;5017873;28;20445;-52
2023/05/27 01:01:59;;;;;;;;;;;;;;;8.46;81.47;102920.16;5017631;28;19964;-48
2023/05/27 01:04:25;;;;;;;;;;;;;;;8.42;81.19;102909.56;5017468;28;20036;-53
2023/05/27 01:07:06;;;;;;;;;;;;;;;8.40;79.19;102916.28;5019206;28;19921;-51
2023/05/27 01:09:39;;;;;;;;;;;;;;;8.38;79.42;102916.19;5018791;28;19959;-51
2023/05/27 01:12:10;;;;;;;;;;;;;;;8.36;82.32;102917.72;5017728;28;19921;-51
2023/05/27 01:14:38;;;;;;;;;;;;;;;8.33;78.90;102910.69;5018121;28;19917;-50
2023/05/27 01:17:04;;;;;;;;;;;;;;;8.32;81.91;102911.47;5019939;28;20686;-49
2023/05/27 01:19:33;;;;;;;;;;;;;;;8.31;79.43;102912.25;5018821;28;20363;-50
2023/05/27 01:21:59;;;;;;;;;;;;;;;8.33;82.14;102915.81;5013851;28;19924;-49
2023/05/27 01:24:24;;;;;;;;;;;;;;;8.30;79.88;102920.72;5016591;28;19917;-49
2023/05/27 01:26:49;;;;;;;;;;;;;;;8.30;80.75;102912.13;5016418;28;19925;-51
2023/05/27 01:29:15;;;;;;;;;;;;;;;8.29;80.55;102913.81;5017665;28;19925;-48
2023/05/27 01:31:40;;;;;;;;;;;;;;;8.28;80.34;102908.59;5018885;28;19921;-52
2023/05/27 01:34:07;;;;;;;;;;;;;;;8.26;80.88;102905.91;5017528;28;19917;-50
2023/05/27 01:36:35;;;;;;;;;;;;;;;8.25;82.52;102913.47;5018149;28;19923;-49
2023/05/27 01:39:02;;;;;;;;;;;;;;;8.24;82.11;102914.25;5013120;28;19921;-51
2023/05/27 01:41:27;;;;;;;;;;;;;;;8.22;82.73;102905.59;5017229;28;19925;-52
2023/05/27 01:43:53;;;;;;;;;;;;;;;8.19;82.17;102897.66;5014408;28;19917;-53
2023/05/27 01:46:18;;;;;;;;;;;;;;;8.17;81.49;102894.13;5017272;28;19922;-50
2023/05/27 01:48:44;;;;;;;;;;;;;;;8.14;82.22;102897.38;5014827;28;19968;-50
2023/05/27 01:51:09;;;;;;;;;;;;;;;8.11;82.74;102894.59;5018973;28;19925;-51
2023/05/27 01:53:34;;;;;;;;;;;;;;;8.09;84.09;102906.41;5020324;28;19925;-52
2023/05/27 01:56:00;;;;;;;;;;;;;;;8.03;83.76;102901.75;5019247;28;20375;-51
2023/05/27 01:58:25;;;;;;;;;;;;;;;8.00;82.87;102896.38;5022069;28;20434;-52
2023/05/27 02:00:51;;;;;;;;;;;;;;;7.99;84.49;102898.84;5021872;28;20019;-51
2023/05/27 02:03:16;;;;;;;;;;;;;;;7.96;82.84;102894.41;5020544;28;20445;-51
2023/05/27 02:05:42;;;;;;;;;;;;;;;7.95;83.82;102897.75;5020659;28;19987;-52
2023/05/27 02:08:08;;;;;;;;;;;;;;;7.92;82.16;102894.06;5022435;28;20279;-51
2023/05/27 02:10:33;;;;;;;;;;;;;;;7.89;82.91;102897.31;5021900;28;19924;-49
2023/05/27 02:12:58;;;;;;;;;;;;;;;7.86;80.75;102901.31;5021739;28;19975;-48
2023/05/27 02:15:24;;;;;;;;;;;;;;;7.82;82.91;102902.75;5019795;28;19936;-49
2023/05/27 02:17:54;;;;;;;;;;;;;;;7.79;82.57;102902.56;5020984;28;19929;-55
2023/05/27 02:20:20;;;;;;;;;;;;;;;7.74;84.28;102899.66;5020687;28;19921;-55
2023/05/27 02:22:45;;;;;;;;;;;;;;;7.72;82.62;102897.78;5020022;28;20446;-55
2023/05/27 02:25:10;;;;;;;;;;;;;;;7.70;84.73;102891.63;5019403;28;20009;-56
2023/05/27 02:27:36;;;;;;;;;;;;;;;7.67;85.42;102901.66;5022063;28;19971;-55
2023/05/27 02:30:01;;;;;;;;;;;;;;;7.62;86.53;102891.09;5020045;28;20375;-55
2023/05/27 02:32:26;;;;;;;;;;;;;;;7.61;85.24;102897.00;5018670;28;20376;-55
2023/05/27 02:34:51;;;;;;;;;;;;;;;7.59;84.29;102896.00;5019273;28;20052;-55
2023/05/27 02:37:16;;;;;;;;;;;;;;;7.58;85.65;102893.31;5017867;28;19964;-55
2023/05/27 02:39:42;;;;;;;;;;;;;;;7.55;83.94;102900.78;5018020;28;19933;-49
2023/05/27 02:42:08;;;;;;;;;;;;;;;7.54;86.24;102902.44;5019360;28;19949;-48
2023/05/27 02:44:33;;;;;;;;;;;;;;;7.52;84.27;102901.44;5019049;28;20008;-49
2023/05/27 02:46:58;;;;;;;;;;;;;;;7.49;85.00;102899.56;5021271;28;19917;-48
2023/05/27 02:49:23;;;;;;;;;;;;;;;7.48;86.82;102905.47;5021414;28;20387;-49
2023/05/27 02:51:48;;;;;;;;;;;;;;;7.48;85.03;102909.69;5021490;28;20360;-49
2023/05/27 02:54:14;;;;;;;;;;;;;;;7.46;87.85;102912.16;5020466;28;20363;-52
2023/05/27 02:56:39;;;;;;;;;;;;;;;7.44;87.24;102921.34;5019882;28;20443;-49
2023/05/27 02:59:05;;;;;;;;;;;;;;;7.42;87.70;102915.25;5020637;28;19925;-51
2023/05/27 03:01:30;;;;;;;;;;;;;;;7.39;88.13;102915.00;5022878;28;19928;-49
2023/05/27 03:03:56;;;;;;;;;;;;;;;7.36;84.65;102909.69;5020361;28;19925;-50
2023/05/27 03:06:21;;;;;;;;;;;;;;;7.35;88.33;102920.69;5020199;28;20008;-50
2023/05/27 03:08:47;;;;;;;;;;;;;;;7.34;88.60;102918.00;5018319;28;19929;-50
2023/05/27 03:11:12;;;;;;;;;;;;;;;7.31;90.27;102918.69;5018503;28;19920;-48
2023/05/27 03:13:37;;;;;;;;;;;;;;;7.28;88.44;102925.22;5018303;28;19929;-49
2023/05/27 03:16:02;;;;;;;;;;;;;;;7.25;89.19;102923.34;5014473;28;19928;-48
2023/05/27 03:18:28;;;;;;;;;;;;;;;7.22;87.75;102918.91;5017670;28;20020;-50
2023/05/27 03:20:53;;;;;;;;;;;;;;;7.20;87.90;102914.44;5019630;28;19929;-52
2023/05/27 03:23:18;;;;;;;;;;;;;;;7.19;89.58;102917.78;5019777;28;19925;-52
2023/05/27 03:25:44;;;;;;;;;;;;;;;7.17;88.39;102915.09;5019848;28;19928;-52
2023/05/27 03:28:10;;;;;;;;;;;;;;;7.21;86.92;102908.53;5018773;28;19956;-52
2023/05/27 03:30:35;;;;;;;;;;;;;;;7.18;87.33;102904.09;5016744;28;19924;-52
2023/05/27 03:33:01;;;;;;;;;;;;;;;7.20;88.06;102909.31;5017949;28;19933;-52
2023/05/27 03:35:26;;;;;;;;;;;;;;;7.20;86.96;102909.31;5017226;28;19983;-52
2023/05/27 03:37:51;;;;;;;;;;;;;;;7.19;87.69;102902.41;5017724;28;19925;-52
2023/05/27 03:40:17;;;;;;;;;;;;;;;7.20;87.56;102899.97;5017223;28;19929;-52
2023/05/27 03:42:42;;;;;;;;;;;;;;;7.21;90.46;102898.28;5019465;28;20299;-54
2023/05/27 03:45:07;;;;;;;;;;;;;;;7.20;92.13;102901.63;5020712;28;19979;-52
2023/05/27 03:47:34;;;;;;;;;;;;;;;7.20;86.39;102893.97;5018699;28;19940;-50
2023/05/27 03:50:00;;;;;;;;;;;;;;;7.21;89.36;102893.19;5016370;28;19999;-51
2023/05/27 03:52:25;;;;;;;;;;;;;;;7.21;90.43;102888.06;5018614;28;19925;-52
2023/05/27 03:54:50;;;;;;;;;;;;;;;7.18;89.87;102886.19;5016790;28;19993;-51
2023/05/27 03:57:16;;;;;;;;;;;;;;;7.20;88.00;102893.97;5019144;28;19927;-51
2023/05/27 03:59:41;;;;;;;;;;;;;;;7.18;90.09;102885.28;5017241;28;19933;-51
2023/05/27 04:02:06;;;;;;;;;;;;;;;7.20;88.58;102882.06;5016578;28;20249;-52
2023/05/27 04:04:31;;;;;;;;;;;;;;;7.20;91.03;102882.06;4954261;28;1820543;-52
2023/05/27 04:06:57;;;;;;;;;;;;;;;7.24;89.61;102885.75;5018905;28;19929;-46
2023/05/27 04:09:22;;;;;;;;;;;;;;;7.23;91.03;102883.97;5017899;28;20399;-48
2023/05/27 04:11:47;;;;;;;;;;;;;;;7.26;89.51;102889.28;5018594;28;20458;-49
2023/05/27 04:14:12;;;;;;;;;;;;;;;7.27;89.59;102885.94;5019414;28;20032;-52
2023/05/27 04:16:41;;;;;;;;;;;;;;;7.30;88.76;102887.88;5018004;28;19925;-52
2023/05/27 04:19:07;;;;;;;;;;;;;;;7.32;88.23;102882.06;5012849;28;20023;-52
2023/05/27 04:21:32;;;;;;;;;;;;;;;7.36;89.37;102876.41;5016053;28;19925;-49
2023/05/27 04:23:57;;;;;;;;;;;;;;;7.39;90.54;102881.72;5017585;28;19935;-49
2023/05/27 04:26:22;;;;;;;;;;;;;;;7.43;93.15;102878.63;5016491;28;19920;-52
2023/05/27 04:28:48;;;;;;;;;;;;;;;7.66;91.60;102876.84;5016067;28;20375;-49
2023/05/27 04:31:15;;;;;;;;;;;;;;;8.03;88.66;102875.22;5018222;28;19928;-49
2023/05/27 04:33:41;;;;;;;;;;;;;;;8.43;87.99;102871.22;5014771;28;20356;-51
2023/05/27 04:36:07;;;;;;;;;;;;;;;8.80;86.90;102866.94;5015812;28;19917;-51
2023/05/27 04:38:32;;;;;;;;;;;;;;;9.11;86.23;102867.28;5018694;28;19921;-52
2023/05/27 04:40:59;;;;;;;;;;;;;;;9.39;84.49;102858.78;5019657;28;19959;-52
2023/05/27 04:43:26;;;;;;;;;;;;;;;9.56;83.79;102860.78;5018150;28;19960;-54
2023/05/27 04:45:52;;;;;;;;;;;;;;;9.74;83.54;102855.91;5012806;28;20090;-53
2023/05/27 04:48:17;;;;;;;;;;;;;;;9.92;82.82;102853.63;5012920;28;19929;-52
2023/05/27 04:50:43;;;;;;;;;;;;;;;10.07;82.33;102846.88;5010838;28;20048;-53
2023/05/27 04:53:08;;;;;;;;;;;;;;;10.22;81.80;102854.63;5015508;28;20030;-52
2023/05/27 04:55:33;;;;;;;;;;;;;;;10.43;80.78;102845.69;5013616;28;20380;-51
2023/05/27 04:58:02;;;;;;;;;;;;;;;10.43;80.42;102861.13;5019827;28;19925;-54
2023/05/27 05:00:49;;;;;;;;;;;;;;;10.14;81.28;102853.28;5018057;28;19939;-53
2023/05/27 05:03:20;;;;;;;;;;;;;;;9.81;82.08;102858.06;5013539;28;19952;-51
2023/05/27 05:05:47;;;;;;;;;;;;;;;9.72;82.97;102847.25;5014180;28;19933;-52
2023/05/27 05:08:12;;;;;;;;;;;;;;;10.03;82.39;102857.75;5015958;28;20418;-52
2023/05/27 05:10:38;;;;;;;;;;;;;;;10.37;81.29;102855.56;5019396;28;19921;-52
2023/05/27 05:13:04;;;;;;;;;;;;;;;10.65;80.56;102852.97;5020757;28;20008;-53
2023/05/27 05:15:30;;;;;;;;;;;;;;;11.05;78.82;102842.44;5019637;28;20008;-51
2023/05/27 05:17:55;;;;;;;;;;;;;;;11.01;78.95;102845.63;5020111;28;20285;-54
2023/05/27 05:20:20;;;;;;;;;;;;;;;11.10;80.02;102845.28;5022256;28;19944;-51
2023/05/27 05:22:46;;;;;;;;;;;;;;;11.39;78.11;102850.38;5018627;28;19929;-53
2023/05/27 05:25:11;;;;;;;;;;;;;;;11.63;77.41;102849.97;5018640;28;20606;-52
2023/05/27 05:27:36;;;;;;;;;;;;;;;11.89;76.26;102848.84;5017278;28;19927;-52
2023/05/27 05:30:02;;;;;;;;;;;;;;;12.20;77.03;102846.25;5018494;28;19921;-52
2023/05/27 05:32:27;;;;;;;;;;;;;;;12.42;74.50;102845.69;5022472;28;19933;-53
2023/05/27 05:34:52;;;;;;;;;;;;;;;12.57;73.91;102851.66;5019622;28;19936;-53
2023/05/27 05:37:18;;;;;;;;;;;;;;;12.65;75.12;102852.03;5013671;28;20387;-52
2023/05/27 05:39:43;;;;;;;;;;;;;;;12.77;72.93;102838.03;5019364;28;20311;-52
2023/05/27 05:42:08;;;;;;;;;;;;;;;12.77;73.83;102847.50;5016322;28;19922;-53
2023/05/27 05:44:34;;;;;;;;;;;;;;;12.99;74.33;102839.13;5017797;28;19921;-54
2023/05/27 05:46:59;;;;;;;;;;;;;;;13.13;73.68;102840.69;5019691;28;20874;-52
2023/05/27 05:49:25;;;;;;;;;;;;;;;13.23;71.76;102840.38;5017722;28;19925;-53
2023/05/27 05:51:50;;;;;;;;;;;;;;;13.36;70.55;102839.25;5017352;28;19974;-53
2023/05/27 05:54:15;;;;;;;;;;;;;;;13.45;71.79;102826.75;5019693;28;19921;-53
2023/05/27 05:56:40;;;;;;;;;;;;;;;13.18;72.10;102822.84;5016684;28;20372;-51
2023/05/27 05:59:05;;;;;;;;;;;;;;;13.24;72.35;102818.00;5020049;28;20304;-53
2023/05/27 06:01:31;;;;;;;;;;;;;;;13.45;71.29;102825.88;5020519;28;20004;-53
2023/05/27 06:03:57;;;;;;;;;;;;;;;13.45;69.58;102825.88;5019204;28;19988;-52
2023/05/27 06:06:23;;;;;;;;;;;;;;;13.46;71.18;102818.19;5014482;28;19928;-52
2023/05/27 06:08:48;;;;;;;;;;;;;;;13.56;69.21;102817.81;5015067;28;19921;-54
2023/05/27 06:11:13;;;;;;;;;;;;;;;13.53;69.42;102814.19;5018135;28;20371;-48
2023/05/27 06:13:39;;;;;;;;;;;;;;;13.28;71.19;102819.91;5016696;28;20008;-51
2023/05/27 06:16:04;;;;;;;;;;;;;;;13.25;71.59;102823.25;5017602;28;19978;-50
2023/05/27 06:18:30;;;;;;;;;;;;;;;13.58;70.66;102830.81;5017538;28;20454;-52
2023/05/27 06:20:55;;;;;;;;;;;;;;;13.92;69.44;102821.22;5018364;28;19932;-44
2023/05/27 06:23:20;;;;;;;;;;;;;;;14.13;69.34;102815.22;5021409;28;20383;-44
2023/05/27 06:25:45;;;;;;;;;;;;;;;14.27;67.60;102819.34;5017803;28;19913;-43
2023/05/27 06:28:11;;;;;;;;;;;;;;;14.30;66.75;102821.16;5017679;28;19970;-44
2023/05/27 06:30:37;;;;;;;;;;;;;;;14.35;68.72;102802.44;5020939;28;20319;-44
2023/05/27 06:33:02;;;;;;;;;;;;;;;14.43;66.80;102803.63;5022989;28;19921;-47
2023/05/27 06:35:27;;;;;;;;;;;;;;;14.23;66.83;102804.47;5020570;28;19921;-48
2023/05/27 06:37:53;;;;;;;;;;;;;;;14.12;67.53;102805.69;5025718;28;19968;-45
2023/05/27 06:40:18;;;;;;;;;;;;;;;14.23;67.21;102801.91;5021494;28;20375;-46
2023/05/27 06:42:44;;;;;;;;;;;;;;;14.34;67.16;102797.19;5023115;28;19922;-45
2023/05/27 06:45:10;;;;;;;;;;;;;;;14.46;66.22;102801.22;5022961;28;19921;-47
2023/05/27 06:47:35;;;;;;;;;;;;;;;14.44;66.05;102801.97;5021005;28;19924;-48
2023/05/27 06:50:00;;;;;;;;;;;;;;;14.56;67.56;102796.41;5017739;28;19944;-47
2023/05/27 06:52:26;;;;;;;;;;;;;;;14.83;65.16;102794.13;5014414;28;19941;-47
2023/05/27 06:54:51;;;;;;;;;;;;;;;15.03;64.78;102794.09;5014147;28;19972;-49
2023/05/27 06:57:16;;;;;;;;;;;;;;;15.05;65.45;102798.50;5024058;28;19924;-48
2023/05/27 06:59:41;;;;;;;;;;;;;;;15.19;63.93;102793.03;5019171;28;19948;-48
2023/05/27 07:02:07;;;;;;;;;;;;;;;15.13;64.64;102791.91;5022367;28;19928;-44
2023/05/27 07:04:32;;;;;;;;;;;;;;;15.06;62.62;102795.06;5013322;28;19952;-45
2023/05/27 07:06:58;;;;;;;;;;;;;;;15.03;64.00;102790.63;5018642;28;19925;-44
2023/05/27 07:09:23;;;;;;;;;;;;;;;14.99;63.02;102784.47;5016770;28;19913;-45
2023/05/27 07:11:48;;;;;;;;;;;;;;;14.94;64.72;102791.16;5017054;28;20345;-44
2023/05/27 07:14:14;;;;;;;;;;;;;;;15.26;63.62;102784.66;5019508;28;19921;-46
2023/05/27 07:16:39;;;;;;;;;;;;;;;15.47;63.09;102786.31;5022430;28;19944;-47
2023/05/27 07:19:05;;;;;;;;;;;;;;;15.46;62.55;102779.34;5022753;28;20296;-43
2023/05/27 07:21:30;;;;;;;;;;;;;;;15.29;62.41;102789.09;5024352;28;19917;-45
2023/05/27 07:23:58;;;;;;;;;;;;;;;15.39;63.17;102780.84;5024046;28;19959;-45
2023/05/27 07:26:25;;;;;;;;;;;;;;;15.70;62.36;102789.81;5023815;28;19914;-45
2023/05/27 07:28:50;;;;;;;;;;;;;;;15.77;60.49;102790.13;5021154;28;19944;-45
2023/05/27 07:31:15;;;;;;;;;;;;;;;15.73;61.83;102767.47;5020650;28;20450;-45
2023/05/27 07:33:41;;;;;;;;;;;;;;;15.78;61.52;102772.84;5021563;28;19921;-44
2023/05/27 07:36:07;;;;;;;;;;;;;;;15.73;60.86;102776.97;5020829;28;19928;-46
2023/05/27 07:38:32;;;;;;;;;;;;;;;15.48;60.57;102781.19;5023054;28;19921;-44
2023/05/27 07:40:57;;;;;;;;;;;;;;;15.28;61.42;102769.16;5019061;28;19987;-43
2023/05/27 07:43:23;;;;;;;;;;;;;;;15.49;61.19;102775.19;5019208;28;19927;-45
2023/05/27 07:45:48;;;;;;;;;;;;;;;15.24;61.00;102763.00;5015141;28;19929;-45
2023/05/27 07:48:13;;;;;;;;;;;;;;;15.44;61.56;102762.88;5017370;28;19918;-44
2023/05/27 07:50:38;;;;;;;;;;;;;;;15.61;61.05;102763.53;5015708;28;20335;-45
2023/05/27 07:53:04;;;;;;;;;;;;;;;15.60;60.14;102765.22;5014538;28;20009;-45
2023/05/27 07:55:29;;;;;;;;;;;;;;;15.50;60.56;102753.63;5012716;28;19917;-44
2023/05/27 07:57:55;;;;;;;;;;;;;;;15.35;61.11;102752.13;5015688;28;20285;-45
2023/05/27 08:00:20;;;;;;;;;;;;;;;15.42;61.16;102751.56;5022249;28;19925;-45
2023/05/27 08:02:45;;;;;;;;;;;;;;;15.47;61.34;102744.81;5017932;28;19917;-47
2023/05/27 08:05:11;;;;;;;;;;;;;;;15.60;61.26;102743.59;5017360;28;20441;-45
2023/05/27 08:07:36;;;;;;;;;;;;;;;15.76;60.42;102757.22;5014798;28;19922;-46
2023/05/27 08:10:01;;;;;;;;;;;;;;;15.81;60.71;102739.22;5023097;28;19971;-44
2023/05/27 08:12:27;;;;;;;;;;;;;;;15.84;60.36;102739.34;5017960;28;19918;-48
2023/05/27 08:14:52;;;;;;;;;;;;;;;16.01;60.23;102747.72;5018791;28;19970;-44
2023/05/27 08:17:17;;;;;;;;;;;;;;;16.12;59.66;102732.53;5019685;28;20040;-46
2023/05/27 08:19:43;;;;;;;;;;;;;;;16.27;59.24;102731.38;5020769;28;20030;-49
2023/05/27 08:22:08;;;;;;;;;;;;;;;16.36;58.70;102736.84;5025636;28;19921;-45
2023/05/27 08:24:36;;;;;;;;;;;;;;;16.34;57.80;102732.47;5021361;28;19916;-47
2023/05/27 08:27:02;;;;;;;;;;;;;;;16.29;58.68;102719.31;5020396;28;19921;-44
2023/05/27 08:29:30;;;;;;;;;;;;;;;16.37;58.37;102714.38;5018217;28;19918;-44
2023/05/27 08:31:55;;;;;;;;;;;;;;;16.23;59.01;102702.66;5019977;28;19924;-45
2023/05/27 08:34:21;;;;;;;;;;;;;;;16.41;58.90;102707.56;5016111;28;20000;-45
2023/05/27 08:36:46;;;;;;;;;;;;;;;16.63;58.32;102704.88;5022206;28;19913;-56
2023/05/27 08:39:12;;;;;;;;;;;;;;;16.81;57.38;102700.28;5021049;28;19957;-58
2023/05/27 08:41:38;;;;;;;;;;;;;;;16.73;57.36;102695.66;5022098;28;19952;-57
2023/05/27 08:44:03;;;;;;;;;;;;;;;16.93;57.01;102683.28;5018619;28;19956;-56
2023/05/27 08:46:29;;;;;;;;;;;;;;;16.98;57.46;102681.72;5022138;28;19913;-57
2023/05/27 08:48:55;;;;;;;;;;;;;;;17.06;56.91;102686.34;5015205;28;20291;-57
2023/05/27 08:51:21;;;;;;;;;;;;;;;17.01;57.02;102690.50;5015701;28;19928;-57
2023/05/27 08:53:47;;;;;;;;;;;;;;;17.12;58.14;102673.53;5014858;28;20012;-57
2023/05/27 08:56:14;;;;;;;;;;;;;;;17.58;57.36;102667.03;5015878;28;20454;-57
2023/05/27 08:58:39;;;;;;;;;;;;;;;17.84;56.04;102679.94;5015075;28;20005;-57
2023/05/27 09:01:05;;;;;;;;;;;;;;;17.84;54.77;102678.22;5013027;28;20035;-57
2023/05/27 09:03:30;;;;;;;;;;;;;;;17.87;55.77;102670.47;5018569;28;19959;-55
2023/05/27 09:05:56;;;;;;;;;;;;;;;17.90;55.58;102669.69;5018768;28;20295;-58
2023/05/27 09:08:21;;;;;;;;;;;;;;;17.83;54.91;102662.53;5015450;28;19921;-57
2023/05/27 09:10:46;;;;;;;;;;;;;;;17.80;54.80;102665.94;5019090;28;19921;-57
2023/05/27 09:13:12;;;;;;;;;;;;;;;17.79;55.18;102655.50;5014166;28;20296;-57
2023/05/27 09:15:37;;;;;;;;;;;;;;;17.86;54.51;102652.22;5020793;28;20368;-56
2023/05/27 09:18:02;;;;;;;;;;;;;;;17.86;53.94;102655.69;5022299;28;19996;-57
2023/05/27 09:20:28;;;;;;;;;;;;;;;17.88;54.78;102655.72;5018709;28;19925;-58
2023/05/27 09:23:00;;;;;;;;;;;;;;;17.88;52.44;102653.13;5018439;28;19981;-57
2023/05/27 09:25:27;;;;;;;;;;;;;;;17.79;54.52;102645.09;5014709;28;20573;-57
2023/05/27 09:27:52;;;;;;;;;;;;;;;17.88;54.29;102646.19;5018353;28;19921;-57
2023/05/27 09:30:19;;;;;;;;;;;;;;;17.99;54.92;102638.69;5012414;28;20487;-57
2023/05/27 09:32:45;;;;;;;;;;;;;;;18.16;53.55;102632.19;5011061;28;20004;-55
2023/05/27 09:35:11;;;;;;;;;;;;;;;18.07;53.71;102634.53;5011586;28;20004;-57
2023/05/27 09:37:36;;;;;;;;;;;;;;;17.95;53.84;102635.09;5010325;28;20372;-57
2023/05/27 09:40:06;;;;;;;;;;;;;;;17.90;53.24;102638.47;5013691;28;19928;-57
2023/05/27 09:42:41;;;;;;;;;;;;;;;18.01;53.73;102634.38;5013890;28;19957;-57
2023/05/27 09:45:10;;;;;;;;;;;;;;;18.02;52.48;102633.56;5014865;28;19913;-57
2023/05/27 09:47:38;;;;;;;;;;;;;;;17.97;53.38;102626.47;5011580;28;19918;-57
2023/05/27 09:50:04;;;;;;;;;;;;;;;18.07;53.19;102626.72;5011062;28;19971;-57
2023/05/27 09:52:31;;;;;;;;;;;;;;;18.12;52.31;102625.13;5010472;28;19929;-57
2023/05/27 09:54:56;;;;;;;;;;;;;;;18.01;53.37;102623.09;5015627;28;19925;-57
2023/05/27 09:57:22;;;;;;;;;;;;;;;17.95;52.36;102629.03;5013456;28;20315;-56
2023/05/27 09:59:48;;;;;;;;;;;;;;;17.77;53.37;102619.00;5015937;28;19917;-56
2023/05/27 10:02:17;;;;;;;;;;;;;;;17.75;53.84;102620.69;5016174;28;19964;-57
2023/05/27 10:04:43;;;;;;;;;;;;;;;17.81;53.48;102612.19;5012410;28;19921;-57
2023/05/27 10:07:09;;;;;;;;;;;;;;;17.86;52.72;102608.84;5019591;28;19983;-57
2023/05/27 10:09:34;;;;;;;;;;;;;;;17.85;52.81;102617.50;5016964;28;19918;-56
2023/05/27 10:12:01;;;;;;;;;;;;;;;17.72;52.74;102611.97;5022934;28;19918;-56
2023/05/27 10:14:26;;;;;;;;;;;;;;;17.66;52.41;102602.22;5017741;28;19925;-57
2023/05/27 10:16:58;;;;;;;;;;;;;;;17.49;53.15;102608.69;5017960;28;19926;-48
2023/05/27 10:19:23;;;;;;;;;;;;;;;17.54;53.13;102604.50;5026251;28;19949;-47
2023/05/27 10:21:48;;;;;;;;;;;;;;;17.55;53.02;102601.06;5023307;28;20028;-46
2023/05/27 10:24:13;;;;;;;;;;;;;;;17.70;52.98;102599.72;5020162;28;19936;-49
2023/05/27 10:26:40;;;;;;;;;;;;;;;17.87;53.55;102601.94;5022148;28;19921;-44
2023/05/27 10:29:07;;;;;;;;;;;;;;;18.02;51.66;102599.72;5020861;28;19913;-45
2023/05/27 10:31:33;;;;;;;;;;;;;;;18.07;52.52;102592.88;5020458;28;19990;-45
2023/05/27 10:33:58;;;;;;;;;;;;;;;18.28;52.21;102594.28;5020275;28;19956;-46
2023/05/27 10:36:25;;;;;;;;;;;;;;;18.54;51.60;102582.72;5015189;28;20004;-46
2023/05/27 10:38:55;;;;;;;;;;;;;;;18.65;50.90;102591.66;5014170;28;20723;-46
2023/05/27 10:41:22;;;;;;;;;;;;;;;18.72;51.87;102583.16;5016015;28;20058;-44
2023/05/27 10:43:55;;;;;;;;;;;;;;;18.94;51.26;102589.72;5023321;28;19975;-46
2023/05/27 10:46:20;;;;;;;;;;;;;;;19.14;50.24;102578.81;5019610;28;19913;-48
2023/05/27 10:48:45;;;;;;;;;;;;;;;19.33;49.44;102573.09;5021588;28;20046;-49
2023/05/27 10:51:11;;;;;;;;;;;;;;;19.40;47.78;102568.88;5016968;28;19964;-47
2023/05/27 10:53:36;;;;;;;;;;;;;;;19.47;49.26;102557.69;5019605;28;20312;-49
2023/05/27 10:56:02;;;;;;;;;;;;;;;19.64;47.84;102558.03;5015483;28;19924;-45
2023/05/27 10:58:28;;;;;;;;;;;;;;;19.90;47.69;102558.47;5018651;28;19924;-45
2023/05/27 11:00:54;;;;;;;;;;;;;;;19.92;47.80;102543.75;5014179;28;19925;-49
2023/05/27 11:03:23;;;;;;;;;;;;;;;19.93;47.83;102551.59;5014612;28;19917;-48
2023/05/27 11:05:58;;;;;;;;;;;;;;;20.05;46.14;102540.47;5019509;28;19936;-47
2023/05/27 11:08:23;;;;;;;;;;;;;;;20.00;46.57;102531.66;5025799;28;19945;-45
2023/05/27 11:10:49;;;;;;;;;;;;;;;20.12;46.41;102536.22;5019352;28;19964;-47
2023/05/27 11:13:14;;;;;;;;;;;;;;;20.07;43.60;102529.16;5016770;28;20292;-47
2023/05/27 11:15:40;;;;;;;;;;;;;;;20.14;44.42;102527.53;5018360;28;19924;-45
2023/05/27 11:18:07;;;;;;;;;;;;;;;20.13;42.80;102523.16;5019209;28;19920;-50
2023/05/27 11:20:36;;;;;;;;;;;;;;;20.00;44.33;102518.63;5021003;28;20364;-48
2023/05/27 11:23:01;;;;;;;;;;;;;;;19.97;44.32;102522.06;5022547;28;19925;-49
2023/05/27 11:25:26;;;;;;;;;;;;;;;19.97;43.73;102516.84;5021363;28;19926;-50
2023/05/27 11:27:52;;;;;;;;;;;;;;;20.02;42.51;102512.59;5019166;28;20292;-47
2023/05/27 11:30:23;;;;;;;;;;;;;;;20.19;42.40;102506.72;5015893;28;19921;-47
2023/05/27 11:32:49;;;;;;;;;;;;;;;20.36;42.38;102505.22;5015778;28;19918;-45
2023/05/27 11:35:14;;;;;;;;;;;;;;;20.55;44.04;102495.91;5016376;28;19924;-49
2023/05/27 11:37:40;;;;;;;;;;;;;;;20.65;42.21;102486.47;5015391;28;19921;-46
2023/05/27 11:40:13;;;;;;;;;;;;;;;20.70;40.06;102493.50;5013693;28;19922;-47
2023/05/27 11:42:42;;;;;;;;;;;;;;;20.67;41.94;102485.63;5012149;28;19917;-46
2023/05/27 11:45:14;;;;;;;;;;;;;;;20.82;41.91;102474.47;5022004;28;19913;-48
2023/05/27 11:47:42;;;;;;;;;;;;;;;20.91;41.14;102478.91;5020322;28;20055;-51
2023/05/27 11:50:08;;;;;;;;;;;;;;;21.03;40.89;102476.44;5020230;28;19921;-48
2023/05/27 11:52:33;;;;;;;;;;;;;;;21.01;39.65;102472.94;5016855;28;20008;-47
2023/05/27 11:54:59;;;;;;;;;;;;;;;20.84;40.01;102476.22;5017207;28;19972;-46
2023/05/27 11:57:24;;;;;;;;;;;;;;;20.78;41.52;102463.09;5016214;28;19925;-50
2023/05/27 11:59:49;;;;;;;;;;;;;;;21.03;40.36;102455.50;5016087;28;19921;-45
2023/05/27 12:02:15;;;;;;;;;;;;;;;21.23;40.81;102453.06;5014019;28;19937;-49
2023/05/27 12:04:41;;;;;;;;;;;;;;;21.20;40.02;102448.72;5017900;28;20468;-46
2023/05/27 12:07:06;;;;;;;;;;;;;;;21.38;41.31;102448.91;5014801;28;19929;-46
2023/05/27 12:09:32;;;;;;;;;;;;;;;21.71;39.18;102444.78;5015670;28;19928;-48
2023/05/27 12:11:57;;;;;;;;;;;;;;;21.79;40.44;102450.09;5013272;28;19925;-49
2023/05/27 12:14:22;;;;;;;;;;;;;;;21.75;40.74;102446.56;5020199;28;19924;-46
2023/05/27 12:16:48;;;;;;;;;;;;;;;21.87;39.56;102443.16;5013760;28;20008;-47
2023/05/27 12:19:13;;;;;;;;;;;;;;;21.94;39.64;102440.56;5011136;28;19953;-45
2023/05/27 12:21:38;;;;;;;;;;;;;;;21.84;38.35;102438.78;5016915;28;19921;-48
2023/05/27 12:24:03;;;;;;;;;;;;;;;21.81;39.01;102435.25;5019725;28;19917;-46
2023/05/27 12:26:29;;;;;;;;;;;;;;;21.54;40.11;102425.50;5016726;28;19926;-45
2023/05/27 12:28:54;;;;;;;;;;;;;;;21.59;41.26;102423.75;5015619;28;19920;-48
2023/05/27 12:31:19;;;;;;;;;;;;;;;21.85;39.63;102418.72;5017890;28;19917;-46
2023/05/27 12:33:45;;;;;;;;;;;;;;;21.95;38.41;102416.13;5014494;28;19944;-46